sensor_id;sensor_type;location;lat;lon;timestamp;temperature;humidity
42135;DHT22;28312;43.460;11.810;2023-02-15T00:02:13;-3276.50;40.00
42135;DHT22;28312;43.460;11.810;2023-02-15T00:06:16;-3276.40;40.10
42135;DHT22;28312;43.460;11.810;2023-02-15T00:10:20;-3276.40;40.20
42135;DHT22;28312;43.460;11.810;2023-02-15T00:14:23;-3276.30;40.10
42135;DHT22;28312;43.460;11.810;2023-02-15T00:18:26;-3276.30;40.10
42135;DHT22;28312;43.460;11.810;2023-02-15T00:22:30;-3276.20;40.30
42135;DHT22;28312;43.460;11.810;2023-02-15T00:26:34;-3276.10;40.10
42135;DHT22;28312;43.460;11.810;2023-02-15T00:30:37;-3276.10;40.20
42135;DHT22;28312;43.460;11.810;2023-02-15T00:34:41;-3276.00;40.40
42135;DHT22;28312;43.460;11.810;2023-02-15T00:38:44;-3275.90;40.40
42135;DHT22;28312;43.460;11.810;2023-02-15T00:42:47;-3275.90;40.40
42135;DHT22;28312;43.460;11.810;2023-02-15T00:46:51;-3275.90;40.50
42135;DHT22;28312;43.460;11.810;2023-02-15T00:50:56;-3275.90;40.50
42135;DHT22;28312;43.460;11.810;2023-02-15T00:55:00;-3275.90;40.40
42135;DHT22;28312;43.460;11.810;2023-02-15T00:59:03;-3275.80;40.70
42135;DHT22;28312;43.460;11.810;2023-02-15T01:03:08;-3275.80;40.80
42135;DHT22;28312;43.460;11.810;2023-02-15T01:07:11;-3275.70;40.70
42135;DHT22;28312;43.460;11.810;2023-02-15T01:11:19;-3275.80;40.90
42135;DHT22;28312;43.460;11.810;2023-02-15T01:15:25;-3275.80;40.80
42135;DHT22;28312;43.460;11.810;2023-02-15T01:19:29;-3275.70;40.70
42135;DHT22;28312;43.460;11.810;2023-02-15T01:23:34;-3275.60;40.80
42135;DHT22;28312;43.460;11.810;2023-02-15T01:27:37;-3275.60;40.70
42135;DHT22;28312;43.460;11.810;2023-02-15T01:31:40;-3275.50;40.80
42135;DHT22;28312;43.460;11.810;2023-02-15T01:35:49;-3275.50;40.70
42135;DHT22;28312;43.460;11.810;2023-02-15T01:39:58;-3275.60;40.80
42135;DHT22;28312;43.460;11.810;2023-02-15T01:44:02;-3275.60;40.70
42135;DHT22;28312;43.460;11.810;2023-02-15T01:48:13;-3275.50;40.70
42135;DHT22;28312;43.460;11.810;2023-02-15T01:52:18;-3275.40;40.60
42135;DHT22;28312;43.460;11.810;2023-02-15T01:56:23;-3275.40;40.70
42135;DHT22;28312;43.460;11.810;2023-02-15T02:00:29;-3275.30;40.90
42135;DHT22;28312;43.460;11.810;2023-02-15T02:04:56;-3275.30;40.80
42135;DHT22;28312;43.460;11.810;2023-02-15T02:08:58;-3275.20;40.90
42135;DHT22;28312;43.460;11.810;2023-02-15T02:13:03;-3275.20;41.00
42135;DHT22;28312;43.460;11.810;2023-02-15T02:17:10;-3275.20;41.10
42135;DHT22;28312;43.460;11.810;2023-02-15T02:21:30;-3275.20;41.10
42135;DHT22;28312;43.460;11.810;2023-02-15T02:34:16;-3274.90;41.30
42135;DHT22;28312;43.460;11.810;2023-02-15T02:46:39;-3274.70;41.20
42135;DHT22;28312;43.460;11.810;2023-02-15T02:50:46;-3274.70;41.30
42135;DHT22;28312;43.460;11.810;2023-02-15T02:54:51;-3274.70;41.20
42135;DHT22;28312;43.460;11.810;2023-02-15T02:58:56;-3274.70;41.10
42135;DHT22;28312;43.460;11.810;2023-02-15T03:03:12;-3274.60;41.20
42135;DHT22;28312;43.460;11.810;2023-02-15T03:07:19;-3274.60;41.30
42135;DHT22;28312;43.460;11.810;2023-02-15T03:11:26;-3274.70;41.30
42135;DHT22;28312;43.460;11.810;2023-02-15T03:15:31;-3274.60;41.30
42135;DHT22;28312;43.460;11.810;2023-02-15T03:19:55;-3274.60;41.40
42135;DHT22;28312;43.460;11.810;2023-02-15T03:24:03;-3274.60;41.40
42135;DHT22;28312;43.460;11.810;2023-02-15T03:28:13;-3274.60;41.40
42135;DHT22;28312;43.460;11.810;2023-02-15T03:32:17;-3274.60;41.40
42135;DHT22;28312;43.460;11.810;2023-02-15T03:36:26;-3274.60;41.30
42135;DHT22;28312;43.460;11.810;2023-02-15T03:40:37;-3274.60;41.30
42135;DHT22;28312;43.460;11.810;2023-02-15T03:45:02;-3274.60;41.30
42135;DHT22;28312;43.460;11.810;2023-02-15T03:49:22;-3274.50;41.30
42135;DHT22;28312;43.460;11.810;2023-02-15T03:53:28;-3274.40;41.40
42135;DHT22;28312;43.460;11.810;2023-02-15T03:57:31;-3274.40;41.40
42135;DHT22;28312;43.460;11.810;2023-02-15T04:02:07;-3274.40;41.40
42135;DHT22;28312;43.460;11.810;2023-02-15T04:06:13;-3274.30;41.40
42135;DHT22;28312;43.460;11.810;2023-02-15T04:10:17;-3274.30;41.40
42135;DHT22;28312;43.460;11.810;2023-02-15T04:14:38;-3274.30;41.50
42135;DHT22;28312;43.460;11.810;2023-02-15T04:19:00;-3274.20;41.60
42135;DHT22;28312;43.460;11.810;2023-02-15T04:23:21;-3274.10;41.60
42135;DHT22;28312;43.460;11.810;2023-02-15T04:27:45;-3274.10;41.60
42135;DHT22;28312;43.460;11.810;2023-02-15T04:31:50;-3274.10;41.60
42135;DHT22;28312;43.460;11.810;2023-02-15T04:35:53;-3274.00;41.70
42135;DHT22;28312;43.460;11.810;2023-02-15T04:39:56;-3274.00;41.70
42135;DHT22;28312;43.460;11.810;2023-02-15T04:44:01;-3274.00;41.70
42135;DHT22;28312;43.460;11.810;2023-02-15T04:48:04;-3274.00;41.80
42135;DHT22;28312;43.460;11.810;2023-02-15T04:52:07;-3274.00;41.70
42135;DHT22;28312;43.460;11.810;2023-02-15T04:56:10;-3274.00;41.70
42135;DHT22;28312;43.460;11.810;2023-02-15T05:00:14;-3274.00;41.70
42135;DHT22;28312;43.460;11.810;2023-02-15T05:04:17;-3274.00;41.80
42135;DHT22;28312;43.460;11.810;2023-02-15T05:08:20;-3273.90;41.80
42135;DHT22;28312;43.460;11.810;2023-02-15T05:12:27;-3273.90;41.80
42135;DHT22;28312;43.460;11.810;2023-02-15T05:16:30;-3273.90;41.60
42135;DHT22;28312;43.460;11.810;2023-02-15T05:20:34;-3273.80;41.70
42135;DHT22;28312;43.460;11.810;2023-02-15T05:24:37;-3273.80;41.60
42135;DHT22;28312;43.460;11.810;2023-02-15T05:28:59;-3273.70;41.70
42135;DHT22;28312;43.460;11.810;2023-02-15T05:33:02;-3273.70;41.90
42135;DHT22;28312;43.460;11.810;2023-02-15T05:37:05;-3273.60;41.90
42135;DHT22;28312;43.460;11.810;2023-02-15T05:41:10;-3273.70;41.90
42135;DHT22;28312;43.460;11.810;2023-02-15T05:45:13;-3273.60;41.90
42135;DHT22;28312;43.460;11.810;2023-02-15T05:49:16;-3273.60;41.80
42135;DHT22;28312;43.460;11.810;2023-02-15T05:53:20;-3273.50;42.00
42135;DHT22;28312;43.460;11.810;2023-02-15T05:57:23;-3273.50;42.00
42135;DHT22;28312;43.460;11.810;2023-02-15T06:01:27;-3273.50;42.10
42135;DHT22;28312;43.460;11.810;2023-02-15T06:05:31;-3273.60;42.20
42135;DHT22;28312;43.460;11.810;2023-02-15T06:09:34;-3273.60;42.20
42135;DHT22;28312;43.460;11.810;2023-02-15T06:13:37;-3273.60;42.20
42135;DHT22;28312;43.460;11.810;2023-02-15T06:17:44;-3273.60;42.10
42135;DHT22;28312;43.460;11.810;2023-02-15T06:21:47;-3273.60;42.20
42135;DHT22;28312;43.460;11.810;2023-02-15T06:25:50;-3273.60;42.20
42135;DHT22;28312;43.460;11.810;2023-02-15T06:29:54;-3273.60;42.30
42135;DHT22;28312;43.460;11.810;2023-02-15T06:33:57;-3273.60;42.40
42135;DHT22;28312;43.460;11.810;2023-02-15T06:38:03;-3273.60;42.40
42135;DHT22;28312;43.460;11.810;2023-02-15T06:42:06;-3273.70;42.50
42135;DHT22;28312;43.460;11.810;2023-02-15T06:46:09;-3273.70;42.50
42135;DHT22;28312;43.460;11.810;2023-02-15T06:50:13;-3273.80;42.60
42135;DHT22;28312;43.460;11.810;2023-02-15T06:54:16;-3273.90;42.70
42135;DHT22;28312;43.460;11.810;2023-02-15T06:58:19;-3274.20;43.50
42135;DHT22;28312;43.460;11.810;2023-02-15T07:02:25;-3275.10;44.70
42135;DHT22;28312;43.460;11.810;2023-02-15T07:06:37;-3276.40;45.30
42135;DHT22;28312;43.460;11.810;2023-02-15T07:10:43;0.90;44.90
42135;DHT22;28312;43.460;11.810;2023-02-15T07:14:47;2.10;44.70
42135;DHT22;28312;43.460;11.810;2023-02-15T07:18:50;3.10;44.80
42135;DHT22;28312;43.460;11.810;2023-02-15T07:22:53;4.30;44.90
42135;DHT22;28312;43.460;11.810;2023-02-15T07:26:56;5.70;44.70
42135;DHT22;28312;43.460;11.810;2023-02-15T07:31:03;6.80;44.20
42135;DHT22;28312;43.460;11.810;2023-02-15T07:35:06;7.70;43.80
42135;DHT22;28312;43.460;11.810;2023-02-15T07:39:10;8.70;43.70
42135;DHT22;28312;43.460;11.810;2023-02-15T07:43:13;9.70;43.30
42135;DHT22;28312;43.460;11.810;2023-02-15T07:47:17;10.70;42.90
42135;DHT22;28312;43.460;11.810;2023-02-15T07:51:20;11.50;42.60
42135;DHT22;28312;43.460;11.810;2023-02-15T07:55:23;12.20;42.50
42135;DHT22;28312;43.460;11.810;2023-02-15T07:59:27;13.00;42.30
42135;DHT22;28312;43.460;11.810;2023-02-15T08:03:30;13.70;42.00
42135;DHT22;28312;43.460;11.810;2023-02-15T08:07:33;14.20;41.40
42135;DHT22;28312;43.460;11.810;2023-02-15T08:11:37;14.70;41.40
42135;DHT22;28312;43.460;11.810;2023-02-15T08:15:49;15.30;41.00
42135;DHT22;28312;43.460;11.810;2023-02-15T08:19:52;15.90;40.70
42135;DHT22;28312;43.460;11.810;2023-02-15T08:23:55;16.40;40.00
42135;DHT22;28312;43.460;11.810;2023-02-15T08:27:59;16.50;39.40
42135;DHT22;28312;43.460;11.810;2023-02-15T08:32:03;16.40;39.30
42135;DHT22;28312;43.460;11.810;2023-02-15T08:36:08;16.50;39.80
42135;DHT22;28312;43.460;11.810;2023-02-15T08:40:15;16.80;39.60
42135;DHT22;28312;43.460;11.810;2023-02-15T08:44:18;17.10;39.50
42135;DHT22;28312;43.460;11.810;2023-02-15T08:48:22;17.30;39.70
42135;DHT22;28312;43.460;11.810;2023-02-15T08:52:25;18.00;39.60
42135;DHT22;28312;43.460;11.810;2023-02-15T08:56:33;18.60;39.20
42135;DHT22;28312;43.460;11.810;2023-02-15T09:00:36;19.00;39.20
42135;DHT22;28312;43.460;11.810;2023-02-15T09:04:40;19.50;38.80
42135;DHT22;28312;43.460;11.810;2023-02-15T09:08:43;19.80;38.40
42135;DHT22;28312;43.460;11.810;2023-02-15T09:12:46;20.20;38.50
42135;DHT22;28312;43.460;11.810;2023-02-15T09:16:49;20.80;38.50
42135;DHT22;28312;43.460;11.810;2023-02-15T09:20:54;21.60;38.20
42135;DHT22;28312;43.460;11.810;2023-02-15T09:24:59;22.00;37.60
42135;DHT22;28312;43.460;11.810;2023-02-15T09:29:03;21.90;37.30
42135;DHT22;28312;43.460;11.810;2023-02-15T09:33:07;21.80;37.80
42135;DHT22;28312;43.460;11.810;2023-02-15T09:37:10;22.10;37.50
42135;DHT22;28312;43.460;11.810;2023-02-15T09:41:28;22.10;37.50
42135;DHT22;28312;43.460;11.810;2023-02-15T09:45:52;22.10;37.50
42135;DHT22;28312;43.460;11.810;2023-02-15T09:50:09;22.00;37.40
42135;DHT22;28312;43.460;11.810;2023-02-15T09:54:28;21.70;37.40
42135;DHT22;28312;43.460;11.810;2023-02-15T09:58:53;22.00;38.10
42135;DHT22;28312;43.460;11.810;2023-02-15T10:11:16;23.50;37.60
42135;DHT22;28312;43.460;11.810;2023-02-15T10:15:45;23.90;37.60
42135;DHT22;28312;43.460;11.810;2023-02-15T10:24:30;24.90;37.10
42135;DHT22;28312;43.460;11.810;2023-02-15T10:28:48;25.10;36.80
42135;DHT22;28312;43.460;11.810;2023-02-15T10:33:01;25.10;36.50
42135;DHT22;28312;43.460;11.810;2023-02-15T10:42:08;25.10;36.70
42135;DHT22;28312;43.460;11.810;2023-02-15T10:45:53;25.20;36.30
42135;DHT22;28312;43.460;11.810;2023-02-15T11:06:42;25.80;36.10
42135;DHT22;28312;43.460;11.810;2023-02-15T11:10:54;26.10;36.30
42135;DHT22;28312;43.460;11.810;2023-02-15T11:15:04;26.40;36.00
42135;DHT22;28312;43.460;11.810;2023-02-15T11:19:18;26.30;35.90
42135;DHT22;28312;43.460;11.810;2023-02-15T11:23:24;26.40;35.90
42135;DHT22;28312;43.460;11.810;2023-02-15T11:27:30;26.50;35.70
42135;DHT22;28312;43.460;11.810;2023-02-15T11:31:46;26.60;35.70
42135;DHT22;28312;43.460;11.810;2023-02-15T11:36:00;26.60;35.60
42135;DHT22;28312;43.460;11.810;2023-02-15T11:40:12;27.00;35.60
42135;DHT22;28312;43.460;11.810;2023-02-15T11:44:22;27.20;35.40
42135;DHT22;28312;43.460;11.810;2023-02-15T11:48:26;27.20;35.00
42135;DHT22;28312;43.460;11.810;2023-02-15T11:52:32;26.90;34.70
42135;DHT22;28312;43.460;11.810;2023-02-15T11:56:38;27.00;35.20
42135;DHT22;28312;43.460;11.810;2023-02-15T12:00:42;27.30;34.70
42135;DHT22;28312;43.460;11.810;2023-02-15T12:04:51;26.90;34.50
42135;DHT22;28312;43.460;11.810;2023-02-15T12:13:15;26.90;35.20
42135;DHT22;28312;43.460;11.810;2023-02-15T12:17:20;27.30;34.80
42135;DHT22;28312;43.460;11.810;2023-02-15T12:21:25;27.30;34.50
42135;DHT22;28312;43.460;11.810;2023-02-15T12:25:33;27.30;34.60
42135;DHT22;28312;43.460;11.810;2023-02-15T12:29:42;27.40;34.70
42135;DHT22;28312;43.460;11.810;2023-02-15T12:33:45;27.40;34.30
42135;DHT22;28312;43.460;11.810;2023-02-15T12:37:52;27.20;34.70
42135;DHT22;28312;43.460;11.810;2023-02-15T12:42:01;27.40;34.60
42135;DHT22;28312;43.460;11.810;2023-02-15T12:46:14;27.30;34.70
42135;DHT22;28312;43.460;11.810;2023-02-15T12:50:22;27.50;34.50
42135;DHT22;28312;43.460;11.810;2023-02-15T12:54:34;27.60;34.60
42135;DHT22;28312;43.460;11.810;2023-02-15T12:58:38;27.60;34.50
42135;DHT22;28312;43.460;11.810;2023-02-15T13:02:43;27.70;34.00
42135;DHT22;28312;43.460;11.810;2023-02-15T13:06:50;27.30;33.90
42135;DHT22;28312;43.460;11.810;2023-02-15T13:10:58;27.00;34.20
42135;DHT22;28312;43.460;11.810;2023-02-15T13:15:02;27.10;34.30
42135;DHT22;28312;43.460;11.810;2023-02-15T13:19:12;27.20;34.00
42135;DHT22;28312;43.460;11.810;2023-02-15T13:23:23;27.30;33.80
42135;DHT22;28312;43.460;11.810;2023-02-15T13:27:46;27.10;33.50
42135;DHT22;28312;43.460;11.810;2023-02-15T13:31:51;27.00;33.80
42135;DHT22;28312;43.460;11.810;2023-02-15T13:36:00;27.40;34.00
42135;DHT22;28312;43.460;11.810;2023-02-15T13:40:11;27.60;33.70
42135;DHT22;28312;43.460;11.810;2023-02-15T13:48:30;27.50;33.50
42135;DHT22;28312;43.460;11.810;2023-02-15T13:53:05;27.70;33.40
42135;DHT22;28312;43.460;11.810;2023-02-15T14:01:28;27.90;33.20
42135;DHT22;28312;43.460;11.810;2023-02-15T14:09:46;28.10;33.10
42135;DHT22;28312;43.460;11.810;2023-02-15T14:18:16;28.10;33.00
42135;DHT22;28312;43.460;11.810;2023-02-15T14:30:49;27.90;32.40
42135;DHT22;28312;43.460;11.810;2023-02-15T14:34:57;27.80;32.10
42135;DHT22;28312;43.460;11.810;2023-02-15T14:43:08;27.50;31.90
42135;DHT22;28312;43.460;11.810;2023-02-15T14:47:17;27.40;31.80
42135;DHT22;28312;43.460;11.810;2023-02-15T14:55:42;27.30;31.40
42135;DHT22;28312;43.460;11.810;2023-02-15T15:03:55;27.40;31.10
42135;DHT22;28312;43.460;11.810;2023-02-15T15:08:00;27.20;31.10
42135;DHT22;28312;43.460;11.810;2023-02-15T15:12:15;27.30;31.10
42135;DHT22;28312;43.460;11.810;2023-02-15T15:16:29;27.40;30.90
42135;DHT22;28312;43.460;11.810;2023-02-15T15:20:43;27.30;30.80
42135;DHT22;28312;43.460;11.810;2023-02-15T15:28:57;26.80;30.70
42135;DHT22;28312;43.460;11.810;2023-02-15T15:33:06;26.70;30.70
42135;DHT22;28312;43.460;11.810;2023-02-15T15:41:41;26.20;30.60
42135;DHT22;28312;43.460;11.810;2023-02-15T15:45:48;25.90;30.60
42135;DHT22;28312;43.460;11.810;2023-02-15T15:49:58;25.60;30.60
42135;DHT22;28312;43.460;11.810;2023-02-15T15:54:02;25.00;30.50
42135;DHT22;28312;43.460;11.810;2023-02-15T15:58:06;24.50;30.70
42135;DHT22;28312;43.460;11.810;2023-02-15T16:02:12;24.00;30.80
42135;DHT22;28312;43.460;11.810;2023-02-15T16:06:31;23.60;30.80
42135;DHT22;28312;43.460;11.810;2023-02-15T16:10:35;23.00;30.80
42135;DHT22;28312;43.460;11.810;2023-02-15T16:14:41;22.60;30.90
42135;DHT22;28312;43.460;11.810;2023-02-15T16:18:47;21.90;30.80
42135;DHT22;28312;43.460;11.810;2023-02-15T16:27:15;20.80;30.70
42135;DHT22;28312;43.460;11.810;2023-02-15T16:31:22;20.10;30.70
42135;DHT22;28312;43.460;11.810;2023-02-15T16:35:25;19.20;31.10
42135;DHT22;28312;43.460;11.810;2023-02-15T16:39:28;18.50;31.10
42135;DHT22;28312;43.460;11.810;2023-02-15T16:43:32;17.60;31.40
42135;DHT22;28312;43.460;11.810;2023-02-15T16:47:39;16.90;31.60
42135;DHT22;28312;43.460;11.810;2023-02-15T16:51:43;16.30;32.00
42135;DHT22;28312;43.460;11.810;2023-02-15T16:55:48;15.70;32.20
42135;DHT22;28312;43.460;11.810;2023-02-15T16:59:54;15.00;32.60
42135;DHT22;28312;43.460;11.810;2023-02-15T17:08:29;14.20;33.10
42135;DHT22;28312;43.460;11.810;2023-02-15T17:12:51;14.20;33.20
42135;DHT22;28312;43.460;11.810;2023-02-15T17:17:16;14.00;33.60
42135;DHT22;28312;43.460;11.810;2023-02-15T17:21:26;13.80;33.60
42135;DHT22;28312;43.460;11.810;2023-02-15T17:25:38;13.60;33.80
42135;DHT22;28312;43.460;11.810;2023-02-15T17:29:46;13.50;34.30
42135;DHT22;28312;43.460;11.810;2023-02-15T17:33:50;13.50;34.20
42135;DHT22;28312;43.460;11.810;2023-02-15T17:38:20;13.40;34.60
42135;DHT22;28312;43.460;11.810;2023-02-15T17:42:19;13.30;34.70
42135;DHT22;28312;43.460;11.810;2023-02-15T17:46:23;13.30;34.60
42135;DHT22;28312;43.460;11.810;2023-02-15T17:50:27;13.20;34.60
42135;DHT22;28312;43.460;11.810;2023-02-15T17:54:30;13.10;34.50
42135;DHT22;28312;43.460;11.810;2023-02-15T17:58:51;13.10;34.70
42135;DHT22;28312;43.460;11.810;2023-02-15T18:02:55;13.00;34.90
42135;DHT22;28312;43.460;11.810;2023-02-15T18:07:17;12.90;34.70
42135;DHT22;28312;43.460;11.810;2023-02-15T18:11:39;12.70;34.50
42135;DHT22;28312;43.460;11.810;2023-02-15T18:15:45;12.40;35.20
42135;DHT22;28312;43.460;11.810;2023-02-15T18:19:50;12.00;34.80
42135;DHT22;28312;43.460;11.810;2023-02-15T18:23:55;11.70;34.80
42135;DHT22;28312;43.460;11.810;2023-02-15T18:27:59;11.20;35.00
42135;DHT22;28312;43.460;11.810;2023-02-15T18:32:06;10.60;35.00
42135;DHT22;28312;43.460;11.810;2023-02-15T18:36:29;10.20;35.10
42135;DHT22;28312;43.460;11.810;2023-02-15T18:40:34;9.60;35.40
42135;DHT22;28312;43.460;11.810;2023-02-15T18:44:39;9.20;35.40
42135;DHT22;28312;43.460;11.810;2023-02-15T18:48:47;8.90;35.50
42135;DHT22;28312;43.460;11.810;2023-02-15T18:52:51;8.70;35.70
42135;DHT22;28312;43.460;11.810;2023-02-15T18:56:59;8.30;35.60
42135;DHT22;28312;43.460;11.810;2023-02-15T19:01:03;7.90;35.80
42135;DHT22;28312;43.460;11.810;2023-02-15T19:05:07;7.50;36.00
42135;DHT22;28312;43.460;11.810;2023-02-15T19:09:13;7.30;36.40
42135;DHT22;28312;43.460;11.810;2023-02-15T19:13:16;7.10;36.60
42135;DHT22;28312;43.460;11.810;2023-02-15T19:17:20;7.00;36.40
42135;DHT22;28312;43.460;11.810;2023-02-15T19:21:27;6.80;36.70
42135;DHT22;28312;43.460;11.810;2023-02-15T19:25:32;6.70;36.70
42135;DHT22;28312;43.460;11.810;2023-02-15T19:29:39;6.50;37.10
42135;DHT22;28312;43.460;11.810;2023-02-15T19:33:43;6.40;37.00
42135;DHT22;28312;43.460;11.810;2023-02-15T19:37:50;6.20;37.50
42135;DHT22;28312;43.460;11.810;2023-02-15T19:41:54;6.20;37.30
42135;DHT22;28312;43.460;11.810;2023-02-15T19:45:57;6.20;37.20
42135;DHT22;28312;43.460;11.810;2023-02-15T19:50:01;6.10;37.30
42135;DHT22;28312;43.460;11.810;2023-02-15T19:54:49;6.10;37.30
42135;DHT22;28312;43.460;11.810;2023-02-15T19:58:33;6.10;37.30
42135;DHT22;28312;43.460;11.810;2023-02-15T20:02:36;5.90;37.50
42135;DHT22;28312;43.460;11.810;2023-02-15T20:06:39;5.80;37.30
42135;DHT22;28312;43.460;11.810;2023-02-15T20:10:42;5.80;37.20
42135;DHT22;28312;43.460;11.810;2023-02-15T20:14:47;5.60;37.20
42135;DHT22;28312;43.460;11.810;2023-02-15T20:18:51;5.50;37.20
42135;DHT22;28312;43.460;11.810;2023-02-15T20:22:54;5.30;37.10
42135;DHT22;28312;43.460;11.810;2023-02-15T20:26:58;5.00;37.20
42135;DHT22;28312;43.460;11.810;2023-02-15T20:31:00;4.80;37.40
42135;DHT22;28312;43.460;11.810;2023-02-15T20:35:04;4.60;37.40
42135;DHT22;28312;43.460;11.810;2023-02-15T20:39:12;4.40;37.60
42135;DHT22;28312;43.460;11.810;2023-02-15T20:43:17;4.20;37.60
42135;DHT22;28312;43.460;11.810;2023-02-15T20:47:21;4.20;37.90
42135;DHT22;28312;43.460;11.810;2023-02-15T20:51:24;4.00;37.80
42135;DHT22;28312;43.460;11.810;2023-02-15T20:55:32;3.80;37.90
42135;DHT22;28312;43.460;11.810;2023-02-15T20:59:35;3.70;37.90
42135;DHT22;28312;43.460;11.810;2023-02-15T21:03:39;3.50;38.00
42135;DHT22;28312;43.460;11.810;2023-02-15T21:07:43;3.40;38.60
42135;DHT22;28312;43.460;11.810;2023-02-15T21:11:47;3.20;39.00
42135;DHT22;28312;43.460;11.810;2023-02-15T21:15:53;3.10;38.80
42135;DHT22;28312;43.460;11.810;2023-02-15T21:19:56;3.10;38.60
42135;DHT22;28312;43.460;11.810;2023-02-15T21:23:59;3.00;38.60
42135;DHT22;28312;43.460;11.810;2023-02-15T21:28:03;2.80;38.90
42135;DHT22;28312;43.460;11.810;2023-02-15T21:32:07;2.80;38.70
42135;DHT22;28312;43.460;11.810;2023-02-15T21:36:17;2.70;38.90
42135;DHT22;28312;43.460;11.810;2023-02-15T21:40:22;2.70;38.90
42135;DHT22;28312;43.460;11.810;2023-02-15T21:44:27;2.70;39.00
42135;DHT22;28312;43.460;11.810;2023-02-15T21:48:49;2.70;38.90
42135;DHT22;28312;43.460;11.810;2023-02-15T21:52:53;2.70;38.80
42135;DHT22;28312;43.460;11.810;2023-02-15T21:56:58;2.70;38.70
42135;DHT22;28312;43.460;11.810;2023-02-15T22:01:02;2.50;38.90
42135;DHT22;28312;43.460;11.810;2023-02-15T22:05:11;2.50;39.00
42135;DHT22;28312;43.460;11.810;2023-02-15T22:09:17;2.40;38.90
42135;DHT22;28312;43.460;11.810;2023-02-15T22:13:30;2.20;38.80
42135;DHT22;28312;43.460;11.810;2023-02-15T22:17:33;2.00;39.20
42135;DHT22;28312;43.460;11.810;2023-02-15T22:21:37;1.90;39.20
42135;DHT22;28312;43.460;11.810;2023-02-15T22:25:41;2.00;39.20
42135;DHT22;28312;43.460;11.810;2023-02-15T22:29:44;2.00;39.10
42135;DHT22;28312;43.460;11.810;2023-02-15T22:33:47;1.90;39.10
42135;DHT22;28312;43.460;11.810;2023-02-15T22:37:53;1.80;39.20
42135;DHT22;28312;43.460;11.810;2023-02-15T22:41:57;1.80;39.10
42135;DHT22;28312;43.460;11.810;2023-02-15T22:46:00;1.80;39.20
42135;DHT22;28312;43.460;11.810;2023-02-15T22:50:12;1.70;39.10
42135;DHT22;28312;43.460;11.810;2023-02-15T22:54:17;1.70;39.00
42135;DHT22;28312;43.460;11.810;2023-02-15T22:58:22;1.60;39.10
42135;DHT22;28312;43.460;11.810;2023-02-15T23:02:29;1.50;39.40
42135;DHT22;28312;43.460;11.810;2023-02-15T23:06:32;1.50;39.40
42135;DHT22;28312;43.460;11.810;2023-02-15T23:10:36;1.50;39.30
42135;DHT22;28312;43.460;11.810;2023-02-15T23:14:41;1.50;39.20
42135;DHT22;28312;43.460;11.810;2023-02-15T23:18:44;1.30;39.20
42135;DHT22;28312;43.460;11.810;2023-02-15T23:22:48;1.20;39.40
42135;DHT22;28312;43.460;11.810;2023-02-15T23:26:51;1.20;39.40
42135;DHT22;28312;43.460;11.810;2023-02-15T23:30:57;1.20;39.40
42135;DHT22;28312;43.460;11.810;2023-02-15T23:35:00;1.10;39.40
42135;DHT22;28312;43.460;11.810;2023-02-15T23:39:16;1.00;39.60
42135;DHT22;28312;43.460;11.810;2023-02-15T23:43:39;0.90;39.50
42135;DHT22;28312;43.460;11.810;2023-02-15T23:47:45;1.00;39.50
42135;DHT22;28312;43.460;11.810;2023-02-15T23:52:07;0.90;39.50
42135;DHT22;28312;43.460;11.810;2023-02-15T23:56:12;0.80;39.50
